Time;durP1;ratioP1;P1;durP2;ratioP2;P2;SDS_P1;SDS_P2;PMS_P1;PMS_P2;Temp;Humidity;BMP_temperature;BMP_pressure;BME280_temperature;BME280_humidity;BME280_pressure;Samples;Min_cycle;Max_cycle;Signal;HPM_P1;HPM_P2
2022/08/18 00:02:06;;;;;;;11.38;10.20;;;;;;;22.86;59.27;99892.84;5103843;28;20104;-75
2022/08/18 00:04:37;;;;;;;11.48;9.80;;;;;;;22.73;59.60;99883.31;5104905;28;20078;-73
2022/08/18 00:07:24;;;;;;;14.50;10.10;;;;;;;22.83;59.72;99909.38;5103791;28;20130;-74
2022/08/18 00:09:51;;;;;;;10.65;9.63;;;;;;;22.77;59.76;99897.38;5098822;28;20504;-73
2022/08/18 00:12:22;;;;;;;11.88;10.18;;;;;;;22.62;59.85;99880.91;5099854;28;20832;-73
2022/08/18 00:14:49;;;;;;;13.02;10.63;;;;;;;22.59;60.17;99878.53;5105790;28;20098;-73
2022/08/18 00:17:16;;;;;;;13.90;10.65;;;;;;;22.64;60.27;99896.97;5102919;28;20086;-72
2022/08/18 00:19:43;;;;;;;11.80;10.70;;;;;;;22.64;60.56;99897.81;5102872;28;20134;-73
2022/08/18 00:22:16;;;;;;;11.85;10.55;;;;;;;22.50;60.78;99878.69;5103938;28;20126;-72
2022/08/18 00:24:44;;;;;;;15.87;11.20;;;;;;;22.63;60.73;99904.22;5103737;28;20450;-73
2022/08/18 00:27:20;;;;;;;11.88;10.68;;;;;;;22.62;60.95;99899.81;5102156;28;20477;-74
2022/08/18 00:29:50;;;;;;;12.38;11.15;;;;;;;22.61;61.14;99895.41;5104124;28;20055;-74
2022/08/18 00:32:39;;;;;;;12.30;11.07;;;;;;;22.59;61.32;99904.69;5110562;28;20079;-74
2022/08/18 00:35:27;;;;;;;12.85;11.30;;;;;;;22.51;61.37;99899.25;5106284;28;20056;-73
2022/08/18 00:37:56;;;;;;;12.52;11.20;;;;;;;22.55;61.58;99906.00;5105959;28;20043;-76
2022/08/18 00:40:44;;;;;;;12.70;11.15;;;;;;;22.35;61.71;99883.81;5108796;27;20074;-75
2022/08/18 00:43:18;;;;;;;12.50;11.23;;;;;;;22.54;61.79;99915.09;5102381;28;20048;-73
2022/08/18 00:45:45;;;;;;;12.82;11.57;;;;;;;22.55;61.70;99920.34;5105738;28;20090;-74
2022/08/18 00:48:13;;;;;;;13.20;11.10;;;;;;;22.55;61.77;99916.78;5107710;28;20123;-71
2022/08/18 00:50:54;;;;;;;12.63;11.32;;;;;;;22.52;61.88;99914.41;5099016;27;20336;-73
2022/08/18 00:53:33;;;;;;;12.48;11.27;;;;;;;22.49;61.83;99907.50;5103733;28;20093;-73
2022/08/18 00:56:07;;;;;;;13.23;11.82;;;;;;;22.50;61.64;99900.25;5107585;28;20701;-73
2022/08/18 00:59:04;;;;;;;12.63;11.43;;;;;;;22.49;62.02;99904.81;5107222;28;20134;-74
2022/08/18 01:01:32;;;;;;;12.52;11.30;;;;;;;22.36;61.80;99897.13;5085742;28;20039;-73
2022/08/18 01:04:11;;;;;;;14.05;11.45;;;;;;;22.53;61.88;99927.75;5105264;28;20156;-74
2022/08/18 01:06:40;;;;;;;11.50;10.43;;;;;;;22.53;61.68;99930.44;5107090;28;20123;-75
2022/08/18 01:09:08;;;;;;;12.60;11.30;;;;;;;22.59;61.42;99943.31;5110158;27;20552;-74
2022/08/18 01:11:37;;;;;;;13.60;11.52;;;;;;;22.45;61.44;99930.41;5106230;28;20040;-75
2022/08/18 01:14:08;;;;;;;13.25;11.95;;;;;;;22.59;61.31;99956.81;5105701;28;20040;-72
2022/08/18 01:22:54;;;;;;;12.00;10.50;;;;;;;22.73;59.69;99955.34;5106424;27;20051;-75
2022/08/18 01:28:07;;;;;;;10.80;9.60;;;;;;;22.73;58.33;99936.47;5099947;28;20075;-73
2022/08/18 01:30:49;;;;;;;10.88;9.80;;;;;;;22.76;58.24;99949.66;5105975;27;20067;-74
2022/08/18 01:33:17;;;;;;;9.63;8.57;;;;;;;22.82;57.68;99959.00;5105561;28;20079;-73
2022/08/18 01:35:48;;;;;;;11.25;8.93;;;;;;;22.83;57.71;99966.06;5103206;28;20105;-73
2022/08/18 01:38:17;;;;;;;10.00;9.00;;;;;;;22.78;57.77;99963.88;5103165;28;20104;-73
2022/08/18 01:40:45;;;;;;;9.65;8.68;;;;;;;22.68;58.17;99952.28;5104008;27;20498;-73
2022/08/18 01:43:34;;;;;;;10.52;8.65;;;;;;;22.69;58.29;99954.81;5105538;28;20077;-74
2022/08/18 01:46:03;;;;;;;12.73;8.77;;;;;;;22.55;58.45;99925.72;5107495;28;20051;-71
2022/08/18 01:48:32;;;;;;;9.15;8.15;;;;;;;22.70;58.27;99955.66;5107277;28;20548;-73
2022/08/18 01:51:02;;;;;;;9.88;8.88;;;;;;;22.68;58.42;99961.22;5101983;28;20497;-73
2022/08/18 01:53:28;;;;;;;10.38;8.90;;;;;;;22.58;58.09;99929.97;5106698;28;20043;-70
2022/08/18 01:55:55;;;;;;;15.98;8.73;;;;;;;22.67;58.46;99950.59;5107418;28;20134;-73
2022/08/18 01:58:26;;;;;;;12.40;9.43;;;;;;;22.57;58.76;99945.31;5106036;27;20059;-73
2022/08/18 02:01:00;;;;;;;10.18;8.88;;;;;;;22.36;59.07;99917.84;5107568;28;20047;-72
2022/08/18 02:03:39;;;;;;;11.60;8.85;;;;;;;22.38;59.48;99935.56;5106964;28;20035;-73
2022/08/18 02:06:12;;;;;;;10.45;9.35;;;;;;;22.31;59.47;99933.69;5104294;28;20230;-73
2022/08/18 02:08:40;;;;;;;10.45;9.35;;;;;;;22.25;59.92;99929.75;5105039;28;20081;-72
2022/08/18 02:11:12;;;;;;;10.45;8.88;;;;;;;22.27;60.09;99937.69;5108231;28;20043;-75
2022/08/18 02:13:39;;;;;;;10.32;9.32;;;;;;;22.36;59.42;99950.22;5107673;28;20044;-70
2022/08/18 02:16:06;;;;;;;9.57;8.63;;;;;;;22.29;59.31;99931.16;5126782;28;20062;-71
2022/08/18 02:18:35;;;;;;;10.10;8.00;;;;;;;22.53;58.87;99948.47;5116994;28;20088;-73
2022/08/18 02:21:17;;;;;;;9.82;8.93;;;;;;;22.62;58.45;99963.72;5106155;28;20218;-73
2022/08/18 02:23:46;;;;;;;9.52;8.27;;;;;;;22.71;58.26;99957.38;5104172;28;20540;-74
2022/08/18 02:26:20;;;;;;;10.68;8.82;;;;;;;22.70;58.38;99964.63;5102291;28;20050;-73
2022/08/18 02:28:47;;;;;;;12.95;9.23;;;;;;;22.70;58.52;99953.81;5106614;28;20071;-75
2022/08/18 02:31:17;;;;;;;11.18;8.27;;;;;;;22.68;58.79;99952.28;5111367;27;20101;-74
2022/08/18 02:33:45;;;;;;;11.10;9.10;;;;;;;22.70;58.67;99955.66;5104195;28;20090;-73
2022/08/18 02:36:20;;;;;;;9.75;8.70;;;;;;;22.66;58.43;99952.47;5105679;28;20039;-72
2022/08/18 02:38:50;;;;;;;11.25;8.77;;;;;;;22.63;58.50;99951.94;5101559;28;20043;-73
2022/08/18 02:41:27;;;;;;;9.35;8.35;;;;;;;22.46;59.21;99947.44;5105754;28;20043;-72
2022/08/18 02:43:56;;;;;;;10.77;8.45;;;;;;;22.51;59.37;99962.13;5107038;27;20047;-72
2022/08/18 02:46:22;;;;;;;9.75;8.57;;;;;;;22.45;59.57;99951.16;5104687;28;20055;-72
2022/08/18 02:48:55;;;;;;;9.98;8.77;;;;;;;22.38;59.81;99935.56;5106175;28;20051;-73
2022/08/18 02:51:22;;;;;;;9.75;8.73;;;;;;;22.44;59.92;99949.44;5099287;28;20049;-74
2022/08/18 02:53:51;;;;;;;9.23;8.20;;;;;;;22.43;60.46;99955.84;5101763;28;20380;-74
2022/08/18 02:56:31;;;;;;;9.23;8.27;;;;;;;22.32;60.82;99947.03;5105153;28;20526;-76
2022/08/18 02:59:13;;;;;;;10.05;8.90;;;;;;;22.15;61.37;99937.13;5104258;28;20040;-74
2022/08/18 03:01:43;;;;;;;10.60;8.65;;;;;;;22.23;61.33;99947.94;5106313;28;20050;-73
2022/08/18 03:04:14;;;;;;;11.15;8.32;;;;;;;22.18;61.64;99944.91;5105258;28;20100;-73
2022/08/18 03:06:42;;;;;;;10.40;8.38;;;;;;;22.15;61.74;99950.59;5104494;28;20093;-73
2022/08/18 03:09:11;;;;;;;13.15;8.73;;;;;;;22.01;62.53;99954.72;5101600;28;20046;-74
2022/08/18 03:11:37;;;;;;;9.57;8.68;;;;;;;21.89;63.23;99963.13;5105389;28;20097;-74
2022/08/18 03:14:05;;;;;;;11.63;8.75;;;;;;;21.81;63.20;99963.94;5105956;28;20047;-72
2022/08/18 03:16:39;;;;;;;9.55;8.48;;;;;;;21.66;63.27;99943.91;5105736;28;20039;-71
2022/08/18 03:19:19;;;;;;;10.25;8.98;;;;;;;21.58;63.67;99941.13;5100144;28;20143;-74
2022/08/18 03:21:46;;;;;;;11.98;9.48;;;;;;;21.46;63.95;99932.41;5102268;28;20122;-74
2022/08/18 03:24:14;;;;;;;12.30;9.40;;;;;;;21.56;64.83;99964.69;5108151;28;20040;-73
2022/08/18 03:26:48;;;;;;;9.27;8.35;;;;;;;21.48;65.37;99949.28;5103942;28;20040;-73
2022/08/18 03:29:15;;;;;;;13.45;9.25;;;;;;;21.51;65.52;99957.06;5104374;28;20146;-73
2022/08/18 03:31:43;;;;;;;10.43;9.05;;;;;;;21.52;66.00;99963.31;5105014;28;20134;-73
2022/08/18 03:34:10;;;;;;;12.18;9.05;;;;;;;21.52;65.89;99957.91;5105799;28;20044;-72
2022/08/18 03:36:37;;;;;;;9.07;8.18;;;;;;;21.50;66.02;99958.06;5100238;28;20075;-73
2022/08/18 03:39:07;;;;;;;15.10;8.63;;;;;;;21.48;65.74;99946.59;5106124;28;20068;-74
2022/08/18 03:41:37;;;;;;;11.77;8.80;;;;;;;21.50;65.62;99955.38;5103578;28;20062;-71
2022/08/18 03:44:24;;;;;;;9.73;8.40;;;;;;;21.34;65.83;99942.56;5105607;28;20147;-73
2022/08/18 03:46:50;;;;;;;11.02;8.80;;;;;;;21.31;65.59;99944.72;5106111;28;20548;-73
2022/08/18 03:49:17;;;;;;;11.30;9.40;;;;;;;21.44;65.86;99969.44;5105195;28;20460;-73
2022/08/18 03:51:48;;;;;;;12.57;8.82;;;;;;;21.41;66.17;99964.34;5100681;28;20129;-74
2022/08/18 03:54:17;;;;;;;11.55;9.32;;;;;;;21.47;66.17;99965.59;5105188;28;20607;-72
2022/08/18 03:56:46;;;;;;;11.27;8.80;;;;;;;21.54;66.24;99961.31;5102559;28;20108;-73
2022/08/18 03:59:25;;;;;;;10.23;9.13;;;;;;;21.60;65.76;99963.38;5104469;28;20079;-73
2022/08/18 04:01:53;;;;;;;10.47;9.33;;;;;;;21.59;65.58;99967.91;5101331;28;20055;-73
2022/08/18 04:04:23;;;;;;;10.88;8.80;;;;;;;21.54;65.50;99964.00;5097160;28;20534;-73
2022/08/18 04:06:54;;;;;;;11.25;9.05;;;;;;;21.54;65.94;99962.16;5098164;28;20109;-73
2022/08/18 04:09:23;;;;;;;12.27;8.90;;;;;;;21.49;65.79;99959.06;5105874;28;20052;-72
2022/08/18 04:11:50;;;;;;;13.32;9.48;;;;;;;21.39;66.09;99941.28;5108229;28;20485;-73
2022/08/18 04:14:22;;;;;;;11.77;9.45;;;;;;;21.51;66.31;99957.06;5109125;28;20035;-73
2022/08/18 04:16:49;;;;;;;12.05;9.30;;;;;;;21.52;66.45;99964.16;5106953;28;20075;-73
2022/08/18 04:19:17;;;;;;;9.57;8.65;;;;;;;21.50;66.73;99958.06;5107082;28;20043;-75
2022/08/18 04:21:54;;;;;;;11.02;9.10;;;;;;;21.52;66.89;99957.91;5104259;27;20135;-73
2022/08/18 04:24:21;;;;;;;10.15;8.55;;;;;;;21.45;67.11;99946.03;5108086;28;20043;-72
2022/08/18 04:26:48;;;;;;;10.00;8.88;;;;;;;21.46;67.43;99958.50;5105732;28;20060;-69
2022/08/18 04:29:19;;;;;;;10.00;8.98;;;;;;;21.44;67.74;99952.41;5102181;28;20414;-72
2022/08/18 04:31:46;;;;;;;11.02;9.55;;;;;;;21.44;67.80;99950.56;5090480;28;20132;-72
2022/08/18 04:34:14;;;;;;;11.60;9.25;;;;;;;21.45;67.99;99946.03;5104404;28;20499;-72
2022/08/18 04:36:41;;;;;;;13.32;9.18;;;;;;;21.45;67.85;99952.28;5100597;28;20549;-71
2022/08/18 04:39:09;;;;;;;10.93;8.57;;;;;;;21.46;67.75;99951.28;5107878;27;20102;-73
2022/08/18 04:41:38;;;;;;;10.07;8.43;;;;;;;21.52;67.94;99953.38;5101915;27;20509;-75
2022/08/18 04:44:07;;;;;;;9.15;8.25;;;;;;;21.58;67.88;99952.75;5086881;28;20124;-70
2022/08/18 04:46:38;;;;;;;10.95;8.45;;;;;;;21.61;67.53;99951.59;5101744;28;20039;-73
2022/08/18 04:49:06;;;;;;;13.40;9.15;;;;;;;21.59;67.87;99953.59;5100915;27;20051;-74
2022/08/18 04:51:34;;;;;;;12.10;9.10;;;;;;;21.53;68.24;99951.53;5106457;28;20052;-72
2022/08/18 04:54:23;;;;;;;10.60;8.50;;;;;;;21.42;68.76;99936.41;5117812;28;20103;-71
2022/08/18 04:56:50;;;;;;;10.10;8.75;;;;;;;21.49;68.56;99933.97;5119874;28;20070;-71
2022/08/18 04:59:17;;;;;;;8.68;7.57;;;;;;;21.55;68.36;99936.91;5127090;28;20047;-70
2022/08/18 05:01:46;;;;;;;10.48;8.68;;;;;;;21.59;68.08;99937.41;5128322;28;20043;-71
2022/08/18 05:04:15;;;;;;;12.43;8.15;;;;;;;21.57;68.32;99952.88;5124921;28;20043;-70
2022/08/18 05:06:43;;;;;;;12.60;8.55;;;;;;;21.53;68.96;99959.59;5110172;28;20071;-74
2022/08/18 05:09:11;;;;;;;10.30;7.90;;;;;;;21.41;69.36;99944.66;5107677;28;20464;-74
2022/08/18 05:11:43;;;;;;;8.85;7.05;;;;;;;21.62;69.08;99969.47;5106535;27;20044;-74
2022/08/18 05:14:10;;;;;;;9.43;7.85;;;;;;;21.69;68.58;99965.16;5107447;28;20043;-73
2022/08/18 05:16:37;;;;;;;9.00;7.35;;;;;;;21.63;68.43;99961.22;5105194;28;20067;-70
2022/08/18 05:19:18;;;;;;;9.32;7.72;;;;;;;21.75;68.76;99985.25;5106667;28;20044;-73
2022/08/18 05:21:54;;;;;;;8.23;7.32;;;;;;;21.79;68.71;99986.63;5106417;28;20047;-70
2022/08/18 05:24:27;;;;;;;7.70;6.90;;;;;;;21.75;68.71;99969.06;5108861;27;20101;-74
2022/08/18 05:27:03;;;;;;;10.07;6.90;;;;;;;21.85;68.37;99989.56;5096151;28;20051;-72
2022/08/18 05:29:35;;;;;;;11.35;7.30;;;;;;;21.94;68.72;99995.88;5106739;27;20045;-72
2022/08/18 05:32:12;;;;;;;9.00;7.28;;;;;;;21.96;68.02;100004.66;5107666;27;20419;-75
2022/08/18 05:35:11;;;;;;;8.82;7.25;;;;;;;21.94;68.22;99985.94;5102666;28;20051;-71
2022/08/18 05:38:03;;;;;;;11.77;7.47;;;;;;;22.10;67.94;100004.16;5106072;28;20065;-72
2022/08/18 05:40:30;;;;;;;10.27;7.85;;;;;;;22.01;67.83;99978.97;5107164;27;20126;-73
2022/08/18 05:42:58;;;;;;;8.82;6.97;;;;;;;22.13;68.07;100005.69;5104176;28;20051;-72
2022/08/18 05:45:26;;;;;;;9.05;7.30;;;;;;;22.14;67.75;99993.91;5105035;28;20095;-74
2022/08/18 05:47:58;;;;;;;10.25;7.40;;;;;;;22.14;67.35;99992.06;5105964;28;20594;-73
2022/08/18 05:50:28;;;;;;;11.43;7.50;;;;;;;22.03;67.70;99990.47;5104747;28;20120;-73
2022/08/18 05:53:05;;;;;;;8.93;6.90;;;;;;;21.91;68.45;99993.47;5105464;28;20075;-73
2022/08/18 05:58:36;;;;;;;9.35;7.22;;;;;;;21.86;69.04;99996.66;5100716;28;20048;-74
2022/08/18 06:01:13;;;;;;;10.25;7.35;;;;;;;21.79;69.24;99981.25;5100388;27;20045;-73
2022/08/18 06:03:49;;;;;;;7.63;6.82;;;;;;;21.70;69.07;99970.41;5099642;28;20126;-72
2022/08/18 06:06:23;;;;;;;8.75;6.75;;;;;;;21.87;68.70;99984.88;5098459;27;20451;-73
2022/08/18 06:09:01;;;;;;;8.88;7.65;;;;;;;21.95;68.75;99993.03;5100824;28;20060;-73
2022/08/18 06:11:28;;;;;;;8.85;7.80;;;;;;;21.86;69.18;99985.03;5099186;27;20076;-73
2022/08/18 06:13:55;;;;;;;10.60;8.15;;;;;;;21.70;69.90;99966.84;5102572;28;20090;-73
2022/08/18 06:17:25;;;;;;;14.27;8.55;;;;;;;21.61;71.21;99978.53;5102135;28;20387;-74
2022/08/18 06:20:09;;;;;;;13.05;8.35;;;;;;;21.50;71.70;99976.06;5046193;28;20448;-73
2022/08/18 06:22:40;;;;;;;14.43;8.10;;;;;;;21.20;72.75;99929.63;5099851;28;20138;-72
2022/08/18 06:25:30;;;;;;;17.73;9.00;;;;;;;21.29;73.26;99957.47;5097972;28;20457;-72
2022/08/18 06:28:05;;;;;;;12.32;8.23;;;;;;;21.27;73.54;99954.94;5095793;28;20100;-72
2022/08/18 06:30:41;;;;;;;11.95;8.00;;;;;;;21.22;73.88;99956.41;5098458;28;20135;-74
2022/08/18 06:33:28;;;;;;;9.50;7.90;;;;;;;21.20;73.86;99959.25;5097217;27;20082;-70
2022/08/18 06:36:02;;;;;;;8.65;7.70;;;;;;;21.19;73.86;99959.34;5102536;27;20420;-74
2022/08/18 06:38:51;;;;;;;9.90;8.38;;;;;;;21.06;74.15;99937.34;5098227;28;20522;-75
2022/08/18 06:41:41;;;;;;;9.60;8.63;;;;;;;21.09;75.42;99951.34;5101790;27;20067;-73
2022/08/18 06:44:15;;;;;;;11.27;8.10;;;;;;;21.09;76.14;99967.50;5100491;28;20518;-74
2022/08/18 06:46:41;;;;;;;11.25;9.45;;;;;;;20.96;76.44;99940.06;5109139;27;20114;-74
2022/08/18 06:49:25;;;;;;;11.48;8.40;;;;;;;21.07;76.62;99972.19;5106056;28;20518;-71
2022/08/18 06:51:52;;;;;;;11.60;9.45;;;;;;;21.09;77.57;99972.88;5102700;28;20155;-74
2022/08/18 06:54:18;;;;;;;11.48;8.85;;;;;;;21.10;77.97;99958.41;5101161;27;20116;-76
2022/08/18 06:56:50;;;;;;;13.40;9.05;;;;;;;21.34;78.15;99977.59;5102820;28;20082;-74
2022/08/18 06:59:30;;;;;;;13.02;8.70;;;;;;;21.50;76.14;99976.91;5101035;27;20140;-73
2022/08/18 07:02:19;;;;;;;13.95;8.38;;;;;;;21.59;75.83;99981.38;5102055;28;20651;-74
2022/08/18 07:05:04;;;;;;;10.07;8.82;;;;;;;21.68;76.13;99985.88;5097587;28;20051;-75
2022/08/18 07:07:40;;;;;;;11.48;9.02;;;;;;;21.77;76.33;99989.47;5104053;28;20120;-75
2022/08/18 07:10:13;;;;;;;13.25;9.55;;;;;;;21.68;75.93;99966.16;5104976;27;20105;-74
2022/08/18 07:12:40;;;;;;;13.35;9.77;;;;;;;21.85;76.94;99991.44;5108926;28;20056;-73
2022/08/18 07:15:11;;;;;;;12.30;9.35;;;;;;;21.89;76.32;99990.94;5125723;27;20067;-72
2022/08/18 07:17:38;;;;;;;15.30;9.80;;;;;;;21.75;75.91;99972.63;5122277;28;20043;-74
2022/08/18 07:20:24;;;;;;;13.20;9.82;;;;;;;21.73;75.28;99977.31;5119621;28;20154;-74
2022/08/18 07:23:03;;;;;;;15.38;11.30;;;;;;;21.79;76.16;99998.25;5113583;28;20075;-72
2022/08/18 07:25:40;;;;;;;15.75;11.23;;;;;;;21.63;77.31;99998.09;5117709;28;20031;-72
2022/08/18 07:28:35;;;;;;;18.05;12.30;;;;;;;21.56;79.39;100002.41;5118091;28;20059;-72
2022/08/18 07:31:16;;;;;;;18.58;11.07;;;;;;;21.40;79.46;99992.31;5110573;28;20056;-74
2022/08/18 07:33:50;;;;;;;14.00;11.00;;;;;;;21.50;79.15;100011.94;5109383;28;20050;-73
2022/08/18 07:36:20;;;;;;;16.33;11.80;;;;;;;21.42;81.19;100003.75;5107546;28;20037;-72
2022/08/18 07:38:55;;;;;;;;;;;;;;;21.53;82.11;100024.25;5110821;28;20086;-75
2022/08/18 07:41:37;;;;;;;11.13;9.80;;;;;;;21.35;81.51;100011.59;5106063;28;19923;-73
2022/08/18 07:44:22;;;;;;;13.82;10.40;;;;;;;21.47;82.26;100019.47;5104051;27;20085;-74
2022/08/18 07:47:03;;;;;;;14.02;10.27;;;;;;;21.53;79.70;100025.13;5104590;27;20071;-69
2022/08/18 07:49:34;;;;;;;12.38;10.18;;;;;;;21.51;79.62;100015.47;5101919;27;20072;-69
2022/08/18 07:52:04;;;;;;;12.70;9.70;;;;;;;21.67;77.70;100021.06;5110983;27;20063;-72
2022/08/18 07:55:04;;;;;;;10.23;9.23;;;;;;;21.92;76.52;100049.94;5110729;27;20405;-69
2022/08/18 07:58:03;;;;;;;13.50;9.90;;;;;;;22.02;74.46;100050.78;5101879;27;20070;-73
2022/08/18 08:00:52;;;;;;;12.88;8.85;;;;;;;22.09;74.54;100058.22;5076855;28;20441;-72
2022/08/18 08:03:53;;;;;;;11.70;8.75;;;;;;;22.15;73.55;100049.53;5100619;28;20551;-71
2022/08/18 08:06:27;;;;;;;12.63;9.63;;;;;;;22.22;72.86;100059.53;5100636;28;20482;-71
2022/08/18 08:08:57;;;;;;;12.85;9.50;;;;;;;22.23;72.69;100066.63;5101268;28;20104;-73
2022/08/18 08:11:45;;;;;;;12.80;10.00;;;;;;;22.18;73.95;100065.41;5104023;27;20104;-72
2022/08/18 08:14:27;;;;;;;12.15;9.02;;;;;;;22.01;75.53;100065.25;5098131;28;20043;-71
2022/08/18 08:16:57;;;;;;;13.63;9.10;;;;;;;21.94;75.36;100044.41;5102982;27;20044;-72
2022/08/18 08:19:47;;;;;;;18.17;9.63;;;;;;;22.08;76.06;100075.41;5102292;27;20132;-71
2022/08/18 08:23:06;;;;;;;13.48;10.60;;;;;;;22.07;76.20;100061.06;5102137;27;20137;-70
2022/08/18 08:25:51;;;;;;;12.00;10.07;;;;;;;22.19;75.32;100070.66;5089710;28;20068;-72
2022/08/18 08:28:47;;;;;;;11.65;10.15;;;;;;;22.11;74.39;100050.84;5102092;27;20043;-70
2022/08/18 08:31:44;;;;;;;11.73;9.65;;;;;;;22.32;74.85;100079.19;5099370;28;20047;-70
2022/08/18 08:34:14;;;;;;;13.32;10.02;;;;;;;22.36;73.36;100085.13;5105702;27;20071;-71
2022/08/18 08:36:44;;;;;;;14.83;9.57;;;;;;;22.31;73.74;100077.50;5097712;28;20093;-69
2022/08/18 08:39:16;;;;;;;;;;;;;;;22.40;73.14;100090.06;5103214;28;20074;-71
2022/08/18 08:42:05;;;;;;;13.07;9.35;;;;;;;22.36;73.03;100071.63;5106435;28;19967;-69
2022/08/18 08:44:58;;;;;;;10.43;9.25;;;;;;;22.51;73.11;100088.94;5103445;28;20039;-69
2022/08/18 08:47:35;;;;;;;12.60;10.27;;;;;;;22.55;72.20;100084.94;5092921;28;20074;-70
2022/08/18 08:50:08;;;;;;;13.73;9.68;;;;;;;22.68;72.61;100084.53;5101275;28;20201;-72
2022/08/18 08:52:53;;;;;;;11.73;9.27;;;;;;;22.63;71.81;100058.03;5097673;28;20104;-71
2022/08/18 08:55:34;;;;;;;12.95;9.88;;;;;;;22.88;71.12;100079.81;5097754;28;20040;-72
2022/08/18 08:58:06;;;;;;;12.98;10.25;;;;;;;23.12;70.43;100084.56;5097746;28;20128;-73
2022/08/18 09:00:35;;;;;;;14.90;11.50;;;;;;;23.21;69.16;100078.19;5097430;28;20043;-71
2022/08/18 09:03:08;;;;;;;16.15;12.38;;;;;;;23.31;68.62;100085.13;5100872;28;20223;-72
2022/08/18 09:05:42;;;;;;;15.65;12.63;;;;;;;23.15;68.56;100065.28;5101753;28;20130;-72
2022/08/18 09:08:26;;;;;;;17.45;12.35;;;;;;;22.93;70.12;100058.59;5097272;28;20076;-71
2022/08/18 09:11:11;;;;;;;13.30;11.73;;;;;;;22.93;70.52;100075.66;5101281;28;20112;-72
2022/08/18 09:13:56;;;;;;;18.77;14.85;;;;;;;22.90;70.32;100081.38;5098848;28;20047;-73
2022/08/18 09:16:58;;;;;;;17.63;14.32;;;;;;;22.83;70.34;100084.84;5099201;28;20039;-70
2022/08/18 09:19:59;;;;;;;21.85;15.10;;;;;;;22.54;70.98;100064.38;5068397;28;20047;-70
2022/08/18 09:22:29;;;;;;;14.27;12.75;;;;;;;22.60;72.09;100077.25;5098075;28;20533;-72
2022/08/18 09:24:56;;;;;;;15.05;13.40;;;;;;;22.60;71.97;100066.44;5096223;28;20515;-72
2022/08/18 09:27:42;;;;;;;17.08;15.05;;;;;;;22.83;70.86;100074.03;5099855;28;20043;-70
2022/08/18 09:31:01;;;;;;;18.00;15.52;;;;;;;22.87;69.75;100075.44;5104569;28;20062;-71
2022/08/18 09:33:44;;;;;;;17.58;15.52;;;;;;;22.86;70.64;100068.34;5028000;28;1287238;-70
2022/08/18 09:36:35;;;;;;;20.17;15.80;;;;;;;22.91;70.24;100066.88;5107580;27;20044;-71
2022/08/18 09:42:26;;;;;;;20.92;17.17;;;;;;;22.97;69.73;100062.69;5101909;27;20047;-73
2022/08/18 09:45:00;;;;;;;20.75;18.42;;;;;;;23.05;69.50;100068.13;5099295;27;20090;-72
2022/08/18 09:47:27;;;;;;;18.23;15.15;;;;;;;23.00;69.68;100067.75;5104134;27;20042;-73
2022/08/18 09:50:05;;;;;;;24.40;15.25;;;;;;;22.99;72.16;100066.91;5102241;27;20071;-74
2022/08/18 09:52:34;;;;;;;15.85;13.10;;;;;;;23.03;71.87;100070.97;5103005;28;20044;-72
2022/08/18 09:55:25;;;;;;;14.77;12.95;;;;;;;23.23;70.80;100082.41;5105317;27;20051;-72
2022/08/18 09:58:10;;;;;;;17.05;14.02;;;;;;;23.35;71.60;100075.72;5100445;27;20542;-70
2022/08/18 10:00:37;;;;;;;23.65;15.32;;;;;;;23.22;70.75;100064.50;5104276;27;20119;-72
2022/08/18 10:03:12;;;;;;;18.40;15.77;;;;;;;23.14;71.80;100059.06;5083511;28;20047;-71
2022/08/18 10:05:54;;;;;;;20.52;18.42;;;;;;;23.29;70.67;100075.53;5109976;27;20062;-71
2022/08/18 10:08:27;;;;;;;20.63;16.95;;;;;;;23.28;69.78;100077.38;5101918;27;20043;-74
2022/08/18 10:11:37;;;;;;;17.75;16.00;;;;;;;23.29;68.84;100091.75;5097833;27;20071;-70
2022/08/18 10:14:26;;;;;;;19.98;17.60;;;;;;;23.36;67.90;100077.41;5096063;27;20127;-73
2022/08/18 10:17:12;;;;;;;25.23;18.55;;;;;;;23.11;68.45;100078.31;5080482;27;20067;-70
2022/08/18 10:20:10;;;;;;;21.92;18.08;;;;;;;22.93;69.11;100047.81;5091335;28;20039;-73
2022/08/18 10:22:53;;;;;;;19.10;16.25;;;;;;;23.20;69.00;100069.22;5101672;27;20047;-73
2022/08/18 10:25:45;;;;;;;22.13;18.60;;;;;;;23.48;67.59;100079.81;5110344;27;20046;-71
2022/08/18 10:28:50;;;;;;;18.63;16.50;;;;;;;23.59;66.60;100074.16;5096276;28;20062;-73
2022/08/18 10:31:17;;;;;;;21.55;17.48;;;;;;;23.65;65.48;100084.31;5103983;27;20052;-71
2022/08/18 10:34:09;;;;;;;22.15;19.42;;;;;;;23.36;65.49;100055.78;5110007;27;20079;-70
2022/08/18 10:37:00;;;;;;;18.08;15.65;;;;;;;23.44;66.99;100079.31;5117849;27;20132;-69
2022/08/18 10:39:43;;;;;;;19.92;16.67;;;;;;;23.63;65.30;100083.63;5114926;27;20166;-72
2022/08/18 10:42:52;;;;;;;19.30;16.70;;;;;;;23.76;64.69;100094.84;5104971;27;20047;-72
2022/08/18 10:45:30;;;;;;;19.00;16.73;;;;;;;23.78;64.80;100099.06;5108184;27;20134;-72
2022/08/18 10:48:04;;;;;;;23.75;18.25;;;;;;;23.60;64.56;100092.09;5106307;28;20071;-69
2022/08/18 10:50:50;;;;;;;21.88;19.08;;;;;;;23.21;64.81;100072.78;5108301;27;20048;-70
2022/08/18 10:53:35;;;;;;;23.30;18.92;;;;;;;23.10;66.57;100103.63;5103496;27;20085;-72
2022/08/18 10:56:24;;;;;;;19.85;17.75;;;;;;;23.07;67.29;100101.22;5108075;27;20055;-72
2022/08/18 10:59:05;;;;;;;21.27;19.02;;;;;;;23.19;66.42;100091.00;5104051;28;20082;-73
2022/08/18 11:01:56;;;;;;;22.42;18.63;;;;;;;23.13;65.96;100070.03;5109524;27;20052;-72
2022/08/18 11:04:52;;;;;;;19.55;17.48;;;;;;;23.11;66.43;100062.09;5105533;28;20404;-69
2022/08/18 11:07:28;;;;;;;23.02;19.52;;;;;;;23.19;66.37;100078.34;5103946;28;20490;-72
2022/08/18 11:10:13;;;;;;;21.35;16.73;;;;;;;23.19;66.80;100070.22;5106093;28;20050;-73
2022/08/18 11:13:20;;;;;;;21.48;17.80;;;;;;;23.17;66.31;100072.25;5106781;28;20065;-73
2022/08/18 11:16:11;;;;;;;15.98;14.30;;;;;;;23.23;66.46;100068.91;5087027;28;20078;-73
2022/08/18 11:18:48;;;;;;;22.08;19.02;;;;;;;23.34;66.15;100057.81;5110540;27;20044;-72
2022/08/18 11:21:35;;;;;;;20.50;17.80;;;;;;;23.19;66.57;100061.28;5105628;28;20050;-72
2022/08/18 11:24:19;;;;;;;;;;;;;;;22.99;67.21;100066.06;5106283;27;20660;-74
2022/08/18 11:26:54;;;;;;;22.58;17.70;;;;;;;22.80;67.69;100058.19;5102340;28;19924;-72
2022/08/18 11:29:33;;;;;;;23.65;19.42;;;;;;;22.77;68.04;100061.19;5110587;28;20048;-72
2022/08/18 11:32:25;;;;;;;22.00;17.95;;;;;;;22.78;68.18;100069.16;5107116;28;20036;-73
2022/08/18 11:34:58;;;;;;;22.30;17.95;;;;;;;22.88;68.41;100055.53;5102945;28;20171;-73
2022/08/18 11:37:45;;;;;;;19.42;17.05;;;;;;;22.99;68.03;100025.53;5108484;28;20039;-69
2022/08/18 11:40:19;;;;;;;19.42;17.48;;;;;;;23.55;66.41;100021.44;5106624;28;20043;-70
2022/08/18 11:43:09;;;;;;;23.08;17.88;;;;;;;23.94;64.73;100003.59;5106691;28;20464;-73
2022/08/18 11:45:42;;;;;;;19.27;16.45;;;;;;;24.33;63.60;99997.56;5107787;28;20051;-69
2022/08/18 11:48:27;;;;;;;24.48;18.92;;;;;;;24.50;61.67;99964.06;5106905;28;20136;-71
2022/08/18 11:51:19;;;;;;;24.40;19.17;;;;;;;24.64;60.73;99959.81;5106656;28;20135;-71
2022/08/18 11:53:57;;;;;;;25.15;17.42;;;;;;;24.92;61.17;99984.59;5103524;28;20503;-72
2022/08/18 11:56:29;;;;;;;19.48;16.92;;;;;;;25.24;59.82;100003.47;5100114;28;20063;-70
2022/08/18 11:59:27;;;;;;;23.75;19.00;;;;;;;25.43;58.43;100010.34;5104279;28;20108;-71
2022/08/18 12:02:21;;;;;;;23.17;19.35;;;;;;;24.78;59.44;99976.19;5104364;28;20114;-71
2022/08/18 12:04:52;;;;;;;24.20;18.20;;;;;;;24.64;60.83;99974.19;5104715;28;20564;-70
2022/08/18 12:07:29;;;;;;;;;;;;;;;24.95;60.33;99989.72;5105478;28;20067;-72
2022/08/18 12:10:14;;;;;;;18.42;16.52;;;;;;;25.20;58.45;100002.13;5105062;28;19924;-73
2022/08/18 12:12:49;;;;;;;19.10;17.05;;;;;;;25.27;57.60;100000.44;5103786;28;20510;-72
2022/08/18 12:15:17;;;;;;;22.48;17.42;;;;;;;25.29;56.63;99987.56;5110053;28;20047;-72
2022/08/18 12:17:50;;;;;;;19.05;17.15;;;;;;;25.39;57.00;99974.63;5105159;28;20501;-72
2022/08/18 12:20:19;;;;;;;17.15;14.70;;;;;;;25.60;57.10;99970.44;5104345;28;20047;-71
2022/08/18 12:22:48;;;;;;;19.63;15.90;;;;;;;25.79;55.00;99976.28;5100863;28;20404;-70